Time;durP1;ratioP1;P1;durP2;ratioP2;P2;SDS_P1;SDS_P2;PMS_P1;PMS_P2;Temp;Humidity;BMP_temperature;BMP_pressure;BME280_temperature;BME280_humidity;BME280_pressure;Samples;Min_cycle;Max_cycle;Signal;HPM_P1;HPM_P2
2024/02/24 00:01:49;;;;;;;4.90;4.07;;;5.30;99.90;;;;;;5053700;28;20467;-63
2024/02/24 00:04:14;;;;;;;3.93;3.13;;;5.30;99.90;;;;;;5070126;28;20171;-60
2024/02/24 00:06:41;;;;;;;11.30;3.57;;;5.30;99.90;;;;;;5053281;28;20175;-61
2024/02/24 00:09:07;;;;;;;4.70;4.27;;;5.20;99.90;;;;;;5053628;28;20309;-60
2024/02/24 00:11:32;;;;;;;5.63;4.03;;;5.20;99.90;;;;;;5070044;28;20512;-59
2024/02/24 00:13:58;;;;;;;5.40;3.67;;;5.20;99.90;;;;;;5053766;28;20171;-60
2024/02/24 00:16:24;;;;;;;4.93;3.57;;;5.30;99.90;;;;;;5053728;28;20515;-60
2024/02/24 00:18:49;;;;;;;4.40;4.00;;;5.20;99.90;;;;;;5053341;28;20218;-60
2024/02/24 00:21:15;;;;;;;9.03;3.50;;;5.20;99.90;;;;;;5053440;28;20227;-60
2024/02/24 00:23:40;;;;;;;6.67;4.30;;;5.20;99.90;;;;;;5062062;28;20223;-60
2024/02/24 00:26:06;;;;;;;4.30;3.63;;;5.20;99.90;;;;;;5073300;28;20701;-59
2024/02/24 00:28:32;;;;;;;3.33;3.03;;;5.20;99.90;;;;;;5072746;28;20181;-60
2024/02/24 00:30:57;;;;;;;4.60;3.33;;;5.10;99.90;;;;;;5053226;28;20178;-59
2024/02/24 00:33:23;;;;;;;5.13;4.63;;;5.20;99.90;;;;;;5053110;28;20597;-60
2024/02/24 00:35:48;;;;;;;5.40;3.67;;;5.10;99.90;;;;;;5053045;28;20171;-60
2024/02/24 00:38:14;;;;;;;3.23;2.93;;;5.20;99.90;;;;;;5053128;28;20272;-60
2024/02/24 00:40:40;;;;;;;8.03;3.33;;;5.20;99.90;;;;;;5053031;28;20179;-59
2024/02/24 00:43:05;;;;;;;6.77;3.17;;;5.20;99.90;;;;;;5052864;28;20191;-60
2024/02/24 00:45:31;;;;;;;3.17;2.93;;;5.10;99.90;;;;;;5053074;28;20167;-60
2024/02/24 00:47:56;;;;;;;3.67;2.73;;;5.10;99.90;;;;;;5053170;28;20675;-59
2024/02/24 00:50:28;;;;;;;4.33;3.27;;;5.20;99.90;;;;;;5052918;28;20584;-59
2024/02/24 00:52:54;;;;;;;6.60;3.50;;;5.10;99.90;;;;;;5064704;28;20198;-59
2024/02/24 00:55:19;;;;;;;5.67;3.53;;;5.00;99.90;;;;;;5072867;28;20413;-60
2024/02/24 00:57:45;;;;;;;9.03;3.60;;;5.00;99.90;;;;;;5072930;28;20660;-59
2024/02/24 01:00:11;;;;;;;3.13;2.70;;;5.00;99.90;;;;;;5072902;28;20182;-59
2024/02/24 01:02:37;;;;;;;5.77;3.17;;;5.00;99.90;;;;;;5072412;28;20212;-59
2024/02/24 01:05:03;;;;;;;6.40;2.93;;;5.00;99.90;;;;;;5072617;28;20927;-60
2024/02/24 01:07:28;;;;;;;4.70;3.37;;;4.90;99.90;;;;;;5072722;28;20721;-59
2024/02/24 01:09:54;;;;;;;3.57;3.27;;;4.90;99.90;;;;;;5064239;28;20922;-59
2024/02/24 01:12:19;;;;;;;3.17;2.97;;;4.90;99.90;;;;;;5072975;28;20198;-60
2024/02/24 01:14:45;;;;;;;6.13;3.50;;;4.80;99.90;;;;;;5072221;28;20261;-59
2024/02/24 01:17:13;;;;;;;4.70;2.90;;;4.80;99.90;;;;;;5071668;28;20208;-60
2024/02/24 01:19:39;;;;;;;5.00;3.70;;;4.80;99.90;;;;;;5072349;28;20694;-59
2024/02/24 01:22:04;;;;;;;5.30;3.60;;;4.70;99.90;;;;;;5072227;28;20437;-60
2024/02/24 01:24:30;;;;;;;4.30;3.90;;;4.70;99.90;;;;;;5072214;28;20170;-59
2024/02/24 01:26:56;;;;;;;4.23;3.73;;;4.70;99.90;;;;;;5072233;28;20264;-59
2024/02/24 01:29:22;;;;;;;3.90;3.60;;;4.70;99.90;;;;;;5072169;28;20209;-59
2024/02/24 01:31:47;;;;;;;4.80;3.73;;;4.70;99.90;;;;;;5071837;28;20568;-59
2024/02/24 01:34:13;;;;;;;8.30;4.10;;;4.60;99.90;;;;;;5071913;28;20170;-60
2024/02/24 01:36:38;;;;;;;5.80;3.73;;;4.60;99.90;;;;;;5071940;28;20163;-59
2024/02/24 01:39:04;;;;;;;6.47;3.60;;;4.60;99.90;;;;;;5072020;28;20201;-60
2024/02/24 01:41:29;;;;;;;5.67;4.30;;;4.60;99.90;;;;;;5071962;28;20194;-60
2024/02/24 01:43:55;;;;;;;8.30;5.00;;;4.60;99.90;;;;;;5071731;28;20632;-60
2024/02/24 01:46:21;;;;;;;5.43;4.23;;;4.60;99.90;;;;;;5071882;28;20174;-60
2024/02/24 01:48:46;;;;;;;4.73;3.67;;;4.70;99.90;;;;;;5069692;28;20250;-60
2024/02/24 01:51:14;;;;;;;5.40;3.67;;;4.60;99.90;;;;;;5051644;28;20277;-60
2024/02/24 01:53:41;;;;;;;3.73;3.23;;;4.70;99.90;;;;;;5051638;28;20695;-60
2024/02/24 01:56:08;;;;;;;6.07;4.70;;;4.80;99.90;;;;;;5051671;28;20426;-59
2024/02/24 01:58:37;;;;;;;4.77;3.93;;;4.80;99.90;;;;;;5051461;28;20464;-60
2024/02/24 02:01:07;;;;;;;6.17;3.43;;;4.80;99.90;;;;;;5051411;28;20808;-60
2024/02/24 02:03:33;;;;;;;3.70;3.20;;;4.70;99.90;;;;;;5051320;28;20471;-59
2024/02/24 02:05:59;;;;;;;5.67;3.70;;;4.70;99.90;;;;;;5051415;28;20405;-59
2024/02/24 02:08:25;;;;;;;8.30;4.10;;;4.70;99.90;;;;;;5068112;28;20425;-59
2024/02/24 02:10:52;;;;;;;7.30;5.03;;;4.80;99.90;;;;;;5056416;28;20175;-59
2024/02/24 02:13:18;;;;;;;8.27;4.20;;;4.80;99.90;;;;;;5062279;28;20175;-59
2024/02/24 02:15:44;;;;;;;5.97;4.53;;;4.80;99.90;;;;;;5054738;28;20409;-60
2024/02/24 02:18:10;;;;;;;5.87;4.03;;;4.80;99.90;;;;;;5064829;28;20460;-60
2024/02/24 02:20:36;;;;;;;4.63;3.67;;;4.90;99.90;;;;;;5068169;28;20254;-59
2024/02/24 02:23:02;;;;;;;5.07;3.70;;;4.90;99.90;;;;;;5051610;28;20190;-59
2024/02/24 02:25:28;;;;;;;4.93;4.37;;;4.90;99.90;;;;;;5051592;28;20173;-59
2024/02/24 02:27:53;;;;;;;5.80;5.00;;;4.90;99.90;;;;;;5051909;28;20421;-60
2024/02/24 02:30:19;;;;;;;5.73;4.20;;;4.80;99.90;;;;;;5054189;28;20178;-59
2024/02/24 02:32:45;;;;;;;7.10;4.10;;;4.80;99.90;;;;;;5073173;28;20201;-59
2024/02/24 02:35:11;;;;;;;4.70;4.30;;;4.90;99.90;;;;;;5075375;28;20170;-61
2024/02/24 02:37:37;;;;;;;6.53;4.37;;;4.90;99.90;;;;;;5075296;28;20205;-60
2024/02/24 02:40:03;;;;;;;7.63;4.77;;;4.90;99.90;;;;;;5075395;28;20412;-59
2024/02/24 02:42:29;;;;;;;9.80;4.47;;;4.90;99.90;;;;;;5075180;28;20215;-60
2024/02/24 02:44:54;;;;;;;5.67;4.07;;;4.90;99.90;;;;;;5075397;28;20539;-60
2024/02/24 02:47:20;;;;;;;5.80;4.20;;;4.90;99.90;;;;;;5075112;28;20416;-61
2024/02/24 02:49:45;;;;;;;5.70;3.73;;;4.90;99.90;;;;;;5081935;28;20535;-62
2024/02/24 02:52:11;;;;;;;5.40;3.80;;;4.90;99.90;;;;;;5071728;28;20233;-61
2024/02/24 02:54:36;;;;;;;5.50;4.13;;;4.90;99.90;;;;;;5054977;28;20574;-60
2024/02/24 02:57:02;;;;;;;4.50;3.77;;;4.90;99.90;;;;;;5054982;28;20171;-60
2024/02/24 02:59:28;;;;;;;6.53;3.90;;;4.90;99.90;;;;;;5052519;28;20177;-58
2024/02/24 03:01:55;;;;;;;4.90;3.70;;;4.90;99.90;;;;;;5097040;22;21128;-66
2024/02/24 03:04:21;;;;;;;4.43;4.03;;;4.90;99.90;;;;;;5074288;28;20584;-64
2024/02/24 03:06:46;;;;;;;5.53;4.33;;;4.90;99.90;;;;;;5074141;28;20423;-65
2024/02/24 03:09:12;;;;;;;4.37;3.80;;;4.90;99.90;;;;;;5074204;28;20178;-65
2024/02/24 03:11:38;;;;;;;4.37;3.97;;;4.90;99.90;;;;;;5073800;28;20197;-65
2024/02/24 03:14:04;;;;;;;7.43;4.73;;;4.90;99.90;;;;;;5074039;28;20174;-65
2024/02/24 03:16:30;;;;;;;4.10;3.50;;;4.80;99.90;;;;;;5074275;28;20174;-65
2024/02/24 03:18:55;;;;;;;5.43;4.57;;;4.80;99.90;;;;;;5073622;28;20467;-64
2024/02/24 03:21:31;;;;;;;6.43;4.80;;;4.90;99.90;;;;;;5074027;28;20265;-64
2024/02/24 03:24:01;;;;;;;6.07;4.57;;;4.90;99.90;;;;;;5073675;28;20226;-65
2024/02/24 03:26:27;;;;;;;10.37;4.60;;;4.80;99.90;;;;;;5074177;28;20445;-65
2024/02/24 03:28:52;;;;;;;6.83;4.60;;;4.80;99.90;;;;;;5073890;28;20425;-65
2024/02/24 03:31:18;;;;;;;5.20;3.70;;;4.80;99.90;;;;;;5074211;28;20436;-65
2024/02/24 03:33:44;;;;;;;6.37;4.73;;;4.80;99.90;;;;;;5073861;28;20562;-65
2024/02/24 03:36:13;;;;;;;5.37;4.13;;;4.80;99.90;;;;;;5074648;28;20220;-64
2024/02/24 03:38:39;;;;;;;4.17;3.33;;;4.80;99.90;;;;;;5073548;28;20251;-64
2024/02/24 03:41:05;;;;;;;7.07;3.70;;;4.80;99.90;;;;;;5073280;28;20940;-64
2024/02/24 03:43:30;;;;;;;6.40;4.10;;;4.80;99.90;;;;;;5074270;28;20425;-65
2024/02/24 03:45:56;;;;;;;5.77;3.23;;;4.70;99.90;;;;;;5073827;28;20190;-64
2024/02/24 03:48:22;;;;;;;4.03;3.53;;;4.70;99.90;;;;;;5073924;28;20182;-65
2024/02/24 03:50:48;;;;;;;7.20;4.30;;;4.70;99.90;;;;;;5073807;28;20173;-64
2024/02/24 03:53:14;;;;;;;8.83;4.23;;;4.70;99.90;;;;;;5073438;28;20969;-64
2024/02/24 03:55:40;;;;;;;5.10;4.23;;;4.60;99.90;;;;;;5073158;28;20415;-64
2024/02/24 03:58:05;;;;;;;4.10;3.70;;;4.60;99.90;;;;;;5073500;28;20483;-64
2024/02/24 04:00:34;;;;;;;5.53;3.93;;;4.60;99.90;;;;;;5073488;28;20663;-63
2024/02/24 04:03:01;;;;;;;3.37;3.07;;;4.50;99.90;;;;;;5073053;28;20583;-64
2024/02/24 04:05:27;;;;;;;8.47;3.80;;;4.50;99.90;;;;;;5073260;28;20459;-64
2024/02/24 04:07:53;;;;;;;4.93;3.57;;;4.40;99.90;;;;;;5073122;28;20871;-65
2024/02/24 04:10:18;;;;;;;3.53;2.80;;;4.40;99.90;;;;;;5073253;28;20190;-64
2024/02/24 04:12:44;;;;;;;3.90;2.87;;;4.40;99.90;;;;;;5072851;28;20214;-65
2024/02/24 04:15:12;;;;;;;6.00;4.53;;;4.30;99.90;;;;;;5073330;28;20189;-64
2024/02/24 04:17:38;;;;;;;5.97;3.37;;;4.30;99.90;;;;;;5073070;28;20293;-64
2024/02/24 04:20:05;;;;;;;3.73;3.33;;;4.20;99.90;;;;;;5072861;28;21029;-65
2024/02/24 04:22:30;;;;;;;5.70;4.10;;;4.20;99.90;;;;;;5072831;28;20793;-64
2024/02/24 04:24:56;;;;;;;4.07;3.50;;;4.20;99.90;;;;;;5072660;28;20413;-65
2024/02/24 04:27:21;;;;;;;4.33;3.40;;;4.20;99.90;;;;;;5073109;28;20188;-65
2024/02/24 04:29:47;;;;;;;5.47;3.47;;;4.10;99.90;;;;;;5072641;28;20182;-65
2024/02/24 04:32:13;;;;;;;4.00;3.50;;;4.00;99.90;;;;;;5072865;28;20734;-65
2024/02/24 04:34:38;;;;;;;5.33;3.90;;;4.00;99.90;;;;;;5072765;28;20240;-65
2024/02/24 04:37:04;;;;;;;5.40;3.13;;;4.00;99.90;;;;;;5072406;28;20180;-65
2024/02/24 04:39:29;;;;;;;3.60;3.30;;;4.00;99.90;;;;;;5072543;28;20529;-65
2024/02/24 04:41:55;;;;;;;5.50;4.00;;;4.00;99.90;;;;;;5072489;28;20202;-65
2024/02/24 04:44:20;;;;;;;11.10;4.10;;;3.90;99.90;;;;;;5072521;28;20186;-65
2024/02/24 04:46:46;;;;;;;7.90;4.17;;;3.90;99.90;;;;;;5072364;28;20182;-65
2024/02/24 04:49:11;;;;;;;6.33;3.77;;;3.90;99.90;;;;;;5072452;28;20178;-65
2024/02/24 04:51:37;;;;;;;3.83;2.77;;;3.80;99.90;;;;;;5072136;28;20554;-65
2024/02/24 04:54:02;;;;;;;3.63;3.33;;;3.80;99.90;;;;;;5072287;28;20198;-65
2024/02/24 04:56:28;;;;;;;4.60;3.50;;;3.70;99.90;;;;;;5072379;28;20312;-65
2024/02/24 04:58:54;;;;;;;4.90;3.90;;;3.70;99.90;;;;;;5071959;28;20209;-66
2024/02/24 05:01:19;;;;;;;4.10;3.70;;;3.70;99.90;;;;;;5072410;28;20636;-66
2024/02/24 05:03:45;;;;;;;3.90;3.60;;;3.70;99.90;;;;;;5071871;28;20688;-64
2024/02/24 05:06:10;;;;;;;4.87;4.47;;;3.70;99.90;;;;;;5072436;28;20189;-64
2024/02/24 05:08:36;;;;;;;3.70;3.40;;;3.70;99.90;;;;;;5072603;28;20170;-64
2024/02/24 05:11:01;;;;;;;3.93;3.60;;;3.70;99.90;;;;;;5072614;28;20252;-65
2024/02/24 05:13:27;;;;;;;8.40;3.77;;;3.70;99.90;;;;;;5071769;28;20672;-64
2024/02/24 05:15:53;;;;;;;5.40;3.93;;;3.70;99.90;;;;;;5071812;28;20185;-65
2024/02/24 05:18:18;;;;;;;5.93;4.13;;;3.70;99.90;;;;;;5072219;28;20259;-65
2024/02/24 05:20:44;;;;;;;3.27;3.00;;;3.60;99.90;;;;;;5071595;28;20178;-65
2024/02/24 05:23:10;;;;;;;4.63;3.53;;;3.60;99.90;;;;;;5071700;28;20598;-65
2024/02/24 05:25:36;;;;;;;6.00;4.50;;;3.60;99.90;;;;;;5071957;28;20179;-64
2024/02/24 05:28:02;;;;;;;4.60;4.30;;;3.60;99.90;;;;;;5071680;28;20221;-64
2024/02/24 05:30:28;;;;;;;6.33;4.47;;;3.60;99.90;;;;;;5071724;28;20925;-64
2024/02/24 05:32:53;;;;;;;7.17;5.17;;;3.70;99.90;;;;;;5071600;28;20497;-65
2024/02/24 05:35:19;;;;;;;5.70;4.13;;;3.70;99.90;;;;;;5071870;28;20185;-64
2024/02/24 05:37:44;;;;;;;10.93;4.47;;;3.70;99.90;;;;;;5071412;28;20667;-64
2024/02/24 05:40:10;;;;;;;4.67;4.20;;;3.60;99.90;;;;;;5071629;28;20173;-64
2024/02/24 05:42:36;;;;;;;5.53;4.40;;;3.50;99.90;;;;;;5071434;28;20190;-65
2024/02/24 05:45:02;;;;;;;7.40;4.70;;;3.40;99.90;;;;;;5071173;28;20474;-64
2024/02/24 05:47:28;;;;;;;5.60;3.97;;;3.40;99.90;;;;;;5071558;28;20197;-64
2024/02/24 05:49:53;;;;;;;4.40;4.00;;;3.40;99.90;;;;;;5071196;28;20474;-65
2024/02/24 05:52:19;;;;;;;4.73;3.80;;;3.30;99.90;;;;;;5071287;28;20251;-66
2024/02/24 05:54:45;;;;;;;8.10;4.30;;;3.30;99.90;;;;;;5071423;28;20166;-66
2024/02/24 05:57:10;;;;;;;4.10;3.20;;;3.30;99.90;;;;;;5071466;28;20185;-64
2024/02/24 05:59:36;;;;;;;4.63;4.13;;;3.20;99.90;;;;;;5071160;28;20253;-64
2024/02/24 06:02:02;;;;;;;5.40;4.60;;;3.20;99.90;;;;;;5071087;28;20673;-65
2024/02/24 06:04:28;;;;;;;7.03;6.43;;;3.30;99.90;;;;;;5070933;28;20265;-64
2024/02/24 06:06:53;;;;;;;5.40;4.00;;;3.30;99.90;;;;;;5071205;28;20186;-64
2024/02/24 06:09:19;;;;;;;4.53;4.03;;;3.30;99.90;;;;;;5071350;28;20264;-64
2024/02/24 06:11:45;;;;;;;5.43;4.00;;;3.20;99.90;;;;;;5071268;28;20181;-65
2024/02/24 06:14:10;;;;;;;4.27;3.87;;;3.20;99.90;;;;;;5070913;28;20557;-65
2024/02/24 06:16:36;;;;;;;4.83;3.73;;;3.20;99.90;;;;;;5071351;28;20500;-65
2024/02/24 06:19:01;;;;;;;4.20;3.83;;;3.20;99.90;;;;;;5071393;28;20216;-64
2024/02/24 06:21:30;;;;;;;6.17;4.43;;;3.30;99.90;;;;;;5071587;28;20170;-64
2024/02/24 06:23:55;;;;;;;4.93;4.30;;;3.40;99.90;;;;;;5071272;28;20444;-67
2024/02/24 06:26:21;;;;;;;5.70;3.93;;;3.40;99.90;;;;;;5071311;28;20428;-64
2024/02/24 06:28:46;;;;;;;6.60;3.77;;;3.30;99.90;;;;;;5071011;28;20178;-64
2024/02/24 06:31:13;;;;;;;6.60;5.10;;;3.40;99.90;;;;;;5071071;28;20312;-63
2024/02/24 06:33:39;;;;;;;5.23;4.23;;;3.50;99.90;;;;;;5070868;28;20246;-64
2024/02/24 06:36:05;;;;;;;5.43;4.57;;;3.60;99.90;;;;;;5071201;28;20858;-64
2024/02/24 06:38:31;;;;;;;11.47;4.40;;;3.60;99.90;;;;;;5071323;28;20838;-66
2024/02/24 06:40:57;;;;;;;4.33;3.83;;;3.70;99.90;;;;;;5070956;28;20420;-65
2024/02/24 06:43:22;;;;;;;5.47;4.93;;;3.70;99.90;;;;;;5070832;28;20194;-66
2024/02/24 06:45:48;;;;;;;5.20;4.27;;;3.80;99.90;;;;;;5070629;28;20193;-63
2024/02/24 06:48:15;;;;;;;7.40;4.30;;;3.80;99.90;;;;;;5070865;28;20189;-64
2024/02/24 06:50:40;;;;;;;6.00;3.90;;;3.80;99.90;;;;;;5070952;28;20178;-66
2024/02/24 06:53:06;;;;;;;4.70;4.00;;;3.90;99.90;;;;;;5070368;28;20547;-64
2024/02/24 06:55:31;;;;;;;4.30;3.90;;;3.90;99.90;;;;;;5070701;28;20181;-65
2024/02/24 06:57:57;;;;;;;6.03;5.00;;;4.00;99.90;;;;;;5070603;28;20234;-65
2024/02/24 07:00:23;;;;;;;5.93;3.87;;;4.10;99.90;;;;;;5070720;28;20224;-65
2024/02/24 07:02:50;;;;;;;4.47;4.07;;;4.20;99.90;;;;;;5070368;28;20202;-65
2024/02/24 07:05:15;;;;;;;6.33;4.13;;;4.20;99.90;;;;;;5070463;28;20421;-66
2024/02/24 07:07:41;;;;;;;4.40;3.63;;;4.30;99.90;;;;;;5070702;28;20773;-65
2024/02/24 07:10:08;;;;;;;5.97;4.27;;;4.50;99.90;;;;;;5070637;28;20182;-66
2024/02/24 07:12:34;;;;;;;11.50;4.43;;;4.60;99.90;;;;;;5070624;28;20436;-65
2024/02/24 07:15:00;;;;;;;5.80;4.70;;;4.80;99.90;;;;;;5071362;28;20467;-65
2024/02/24 07:17:27;;;;;;;4.83;3.73;;;4.90;99.90;;;;;;5074258;28;20495;-65
2024/02/24 07:19:53;;;;;;;5.73;3.70;;;5.20;99.90;;;;;;5073832;28;20420;-64
2024/02/24 07:22:19;;;;;;;4.57;4.00;;;5.50;99.90;;;;;;5074190;28;20560;-65
2024/02/24 07:24:44;;;;;;;7.67;4.20;;;5.80;99.90;;;;;;5074410;28;20995;-65
2024/02/24 07:27:10;;;;;;;5.07;4.00;;;6.00;99.90;;;;;;5074164;28;20556;-64
2024/02/24 07:29:36;;;;;;;4.77;3.57;;;6.20;99.90;;;;;;5073990;28;20173;-66
2024/02/24 07:32:03;;;;;;;5.33;4.50;;;6.20;99.90;;;;;;5073599;28;20218;-66
2024/02/24 07:34:29;;;;;;;3.33;2.83;;;6.50;99.90;;;;;;5073783;28;20412;-66
2024/02/24 07:36:54;;;;;;;5.67;3.63;;;7.00;99.90;;;;;;5073516;28;20428;-65
2024/02/24 07:39:20;;;;;;;6.37;3.90;;;6.70;99.90;;;;;;5073784;28;20217;-64
2024/02/24 07:41:46;;;;;;;5.80;5.33;;;7.10;99.90;;;;;;5073667;28;20188;-65
2024/02/24 07:44:12;;;;;;;5.70;3.50;;;7.30;99.90;;;;;;5073407;28;20194;-66
2024/02/24 07:46:37;;;;;;;3.40;2.83;;;7.50;99.90;;;;;;5073601;28;20979;-65
2024/02/24 07:49:03;;;;;;;3.60;2.77;;;7.50;99.90;;;;;;5073590;28;20193;-65
2024/02/24 07:51:29;;;;;;;3.87;3.00;;;7.70;99.90;;;;;;5073548;28;20307;-65
2024/02/24 07:53:56;;;;;;;3.17;2.67;;;7.60;99.90;;;;;;5073096;28;20222;-65
2024/02/24 07:56:23;;;;;;;4.23;2.37;;;8.00;99.90;;;;;;5073543;28;20858;-65
2024/02/24 07:58:49;;;;;;;3.27;2.77;;;8.00;99.90;;;;;;5073401;28;20832;-65
2024/02/24 08:01:14;;;;;;;7.23;2.80;;;8.10;99.90;;;;;;5073110;28;20420;-64
2024/02/24 08:03:40;;;;;;;3.40;3.10;;;8.30;99.90;;;;;;5072971;28;20480;-65
2024/02/24 08:06:06;;;;;;;2.80;2.33;;;8.20;99.90;;;;;;5073175;28;20189;-66
2024/02/24 08:08:33;;;;;;;2.37;2.17;;;8.10;99.90;;;;;;5073309;28;20553;-65
2024/02/24 08:11:00;;;;;;;3.50;3.17;;;8.20;99.90;;;;;;5072988;28;20431;-66
2024/02/24 08:13:26;;;;;;;4.30;2.73;;;8.30;99.90;;;;;;5073318;28;20449;-65
2024/02/24 08:15:52;;;;;;;4.43;2.40;;;8.30;99.90;;;;;;5072979;28;20440;-65
2024/02/24 08:18:17;;;;;;;4.83;2.93;;;8.30;99.90;;;;;;5072855;28;20519;-65
2024/02/24 08:20:43;;;;;;;3.47;2.77;;;8.50;99.90;;;;;;5073074;28;20488;-64
2024/02/24 08:23:09;;;;;;;4.50;2.47;;;8.80;99.90;;;;;;5071381;28;20234;-67
2024/02/24 08:25:35;;;;;;;3.90;2.63;;;9.40;99.90;;;;;;5072504;28;20542;-65
2024/02/24 08:28:00;;;;;;;2.60;2.33;;;10.30;99.90;;;;;;5073067;28;20426;-65
2024/02/24 08:30:26;;;;;;;2.57;2.37;;;10.40;99.90;;;;;;5072930;28;20187;-67
2024/02/24 08:32:51;;;;;;;5.67;3.13;;;12.10;99.90;;;;;;5072592;28;20203;-66
2024/02/24 08:35:18;;;;;;;4.47;2.87;;;12.00;99.90;;;;;;5072731;28;20177;-65
2024/02/24 08:37:44;;;;;;;3.33;2.53;;;12.80;99.90;;;;;;5072572;28;20295;-64
2024/02/24 08:40:13;;;;;;;4.30;2.57;;;13.10;99.90;;;;;;5072298;28;20461;-65
2024/02/24 08:42:39;;;;;;;3.03;2.40;;;13.10;99.90;;;;;;5072539;28;20806;-66
2024/02/24 08:45:05;;;;;;;4.93;2.77;;;13.10;99.90;;;;;;5072308;28;20439;-67
2024/02/24 08:47:31;;;;;;;3.10;2.63;;;13.20;99.90;;;;;;5072869;28;20194;-65
2024/02/24 08:49:56;;;;;;;4.03;2.57;;;13.20;99.90;;;;;;5072250;28;20432;-66
2024/02/24 08:52:23;;;;;;;3.43;2.50;;;13.20;99.90;;;;;;5072140;28;20204;-64
2024/02/24 08:54:48;;;;;;;3.20;2.17;;;14.10;99.90;;;;;;5071954;28;20257;-64
2024/02/24 08:57:14;;;;;;;4.10;2.20;;;14.20;99.90;;;;;;5071808;28;20521;-65
2024/02/24 08:59:40;;;;;;;2.90;2.23;;;13.30;99.90;;;;;;5071880;28;20559;-64
2024/02/24 09:02:06;;;;;;;2.63;2.10;;;12.50;99.90;;;;;;5071770;28;20306;-66
2024/02/24 09:04:32;;;;;;;3.37;2.20;;;12.60;99.90;;;;;;5072212;28;20439;-66
2024/02/24 09:06:57;;;;;;;3.03;2.23;;;12.50;99.90;;;;;;5075336;28;20804;-65
2024/02/24 09:09:23;;;;;;;3.70;2.10;;;13.00;99.90;;;;;;5075891;28;20188;-66
2024/02/24 09:11:49;;;;;;;3.30;2.23;;;12.50;99.90;;;;;;5072581;28;20180;-65
2024/02/24 09:14:15;;;;;;;4.77;2.70;;;12.10;99.90;;;;;;5073421;28;20636;-65
2024/02/24 09:16:41;;;;;;;3.97;3.10;;;14.30;99.90;;;;;;5073001;28;20697;-66
2024/02/24 09:19:06;;;;;;;2.93;1.93;;;14.60;99.90;;;;;;5071569;28;20461;-65
2024/02/24 09:21:32;;;;;;;2.67;2.20;;;15.30;99.30;;;;;;5071823;28;20272;-65
2024/02/24 09:23:57;;;;;;;5.63;2.83;;;13.20;99.90;;;;;;5071469;28;20201;-66
2024/02/24 09:26:23;;;;;;;2.70;1.90;;;13.10;99.90;;;;;;5071917;28;20169;-68
2024/02/24 09:28:49;;;;;;;2.40;1.97;;;12.70;99.90;;;;;;5071648;28;20179;-65
2024/02/24 09:31:15;;;;;;;2.50;1.77;;;13.20;99.90;;;;;;5071904;28;20571;-65
2024/02/24 09:33:40;;;;;;;2.73;2.00;;;13.80;99.90;;;;;;5071980;28;20275;-68
2024/02/24 09:36:06;;;;;;;3.80;2.03;;;12.40;99.90;;;;;;5073575;28;20193;-67
2024/02/24 09:38:32;;;;;;;4.80;1.77;;;11.70;99.90;;;;;;5073501;28;20261;-66
2024/02/24 09:40:58;;;;;;;1.60;1.50;;;11.60;99.90;;;;;;5073424;28;20498;-63
2024/02/24 09:43:23;;;;;;;3.23;1.50;;;11.30;99.90;;;;;;5071508;28;20253;-66
2024/02/24 09:45:50;;;;;;;2.90;1.80;;;10.80;99.90;;;;;;5071273;28;20193;-67
2024/02/24 09:48:17;;;;;;;2.70;1.87;;;11.00;99.90;;;;;;5069603;28;20184;-67
2024/02/24 09:50:43;;;;;;;2.90;1.93;;;10.80;99.90;;;;;;5071528;28;20491;-66
2024/02/24 09:53:09;;;;;;;2.83;1.67;;;11.30;99.90;;;;;;5070978;28;20445;-65
2024/02/24 09:55:36;;;;;;;2.17;1.90;;;11.60;99.90;;;;;;5071394;28;20241;-75
2024/02/24 09:58:03;;;;;;;4.90;1.93;;;11.90;99.90;;;;;;5070208;28;20465;-70
2024/02/24 10:00:29;;;;;;;4.00;2.13;;;11.50;99.90;;;;;;5071614;28;20411;-68
2024/02/24 10:02:54;;;;;;;2.47;1.60;;;11.30;99.90;;;;;;5071255;28;20610;-74
2024/02/24 10:05:20;;;;;;;1.93;1.83;;;11.00;99.90;;;;;;5072274;28;20177;-66
2024/02/24 10:07:46;;;;;;;5.20;2.10;;;10.40;99.90;;;;;;5071589;28;20295;-67
2024/02/24 10:10:16;;;;;;;3.30;2.57;;;9.90;99.90;;;;;;5071353;28;20254;-65
2024/02/24 10:13:08;;;;;;;2.17;1.97;;;9.90;99.90;;;;;;5071442;28;20192;-66
2024/02/24 10:15:34;;;;;;;6.30;1.70;;;10.10;99.90;;;;;;5067295;28;20435;-66
2024/02/24 10:18:00;;;;;;;8.17;2.10;;;10.30;99.90;;;;;;5071391;28;20459;-66
2024/02/24 10:20:27;;;;;;;2.57;2.10;;;10.20;99.90;;;;;;5071312;28;20447;-66
2024/02/24 10:22:52;;;;;;;2.43;1.93;;;10.20;99.90;;;;;;5072020;28;20436;-73
2024/02/24 10:25:18;;;;;;;5.73;2.40;;;10.20;99.90;;;;;;5071572;28;20442;-66
2024/02/24 10:27:46;;;;;;;4.27;2.20;;;10.10;99.90;;;;;;5071280;28;20249;-68
2024/02/24 10:30:12;;;;;;;2.67;1.93;;;10.00;99.90;;;;;;5071046;28;20413;-68
2024/02/24 10:32:41;;;;;;;3.77;2.30;;;10.00;99.90;;;;;;5071372;28;20566;-70
2024/02/24 10:35:11;;;;;;;3.73;2.40;;;10.10;99.90;;;;;;5071613;28;20427;-66
2024/02/24 10:37:37;;;;;;;3.90;1.87;;;10.10;99.90;;;;;;5070759;28;20453;-65
2024/02/24 10:40:05;;;;;;;4.93;2.17;;;9.90;99.90;;;;;;5070844;28;20422;-69
2024/02/24 10:42:30;;;;;;;3.27;1.90;;;10.00;99.90;;;;;;5070953;28;20944;-67
2024/02/24 10:44:56;;;;;;;2.57;1.93;;;10.20;99.90;;;;;;5070926;28;20511;-67
2024/02/24 10:47:22;;;;;;;5.57;2.83;;;10.30;99.90;;;;;;5070988;28;20424;-66
2024/02/24 10:49:48;;;;;;;15.43;7.93;;;10.20;99.90;;;;;;5073058;28;20170;-67
2024/02/24 10:52:18;;;;;;;3.53;2.13;;;10.30;99.90;;;;;;5074478;28;20443;-67
2024/02/24 10:54:45;;;;;;;3.83;2.03;;;10.20;99.90;;;;;;5072921;28;20183;-66
2024/02/24 10:57:13;;;;;;;2.60;2.17;;;10.30;99.90;;;;;;5064070;28;20413;-66
2024/02/24 10:59:39;;;;;;;2.80;1.30;;;10.40;99.90;;;;;;5068569;28;20569;-70
2024/02/24 11:02:06;;;;;;;6.23;1.50;;;10.40;99.90;;;;;;5075433;28;20989;-66
2024/02/24 11:04:41;;;;;;;5.50;1.40;;;10.50;99.90;;;;;;5070746;28;20416;-66
2024/02/24 11:07:15;;;;;;;2.10;1.33;;;10.40;99.90;;;;;;5074641;28;20806;-70
2024/02/24 11:09:40;;;;;;;4.60;1.50;;;10.40;99.90;;;;;;5075062;28;20420;-68
2024/02/24 11:12:11;;;;;;;2.83;1.80;;;10.30;99.90;;;;;;5066342;28;20437;-66
2024/02/24 11:14:41;;;;;;;2.37;2.00;;;10.30;99.90;;;;;;5074386;28;20198;-67
2024/02/24 11:17:08;;;;;;;2.80;1.87;;;10.20;99.90;;;;;;5074700;28;20412;-70
2024/02/24 11:19:43;;;;;;;3.90;1.47;;;10.20;99.90;;;;;;5074926;28;20417;-66
2024/02/24 11:22:20;;;;;;;2.30;1.53;;;10.30;99.90;;;;;;5074691;28;20439;-73
2024/02/24 11:24:58;;;;;;;2.50;1.90;;;10.30;99.90;;;;;;5075356;28;20439;-72
2024/02/24 11:27:29;;;;;;;2.40;1.50;;;10.40;99.90;;;;;;5075374;28;20752;-72
2024/02/24 11:29:54;;;;;;;3.10;2.50;;;10.40;99.90;;;;;;5066848;28;20420;-69
2024/02/24 11:32:21;;;;;;;2.40;1.70;;;10.40;99.90;;;;;;5074498;28;20440;-69
2024/02/24 11:34:48;;;;;;;2.23;1.77;;;10.60;99.90;;;;;;5074216;28;20177;-67
2024/02/24 11:37:16;;;;;;;2.20;1.90;;;10.60;99.90;;;;;;5074130;28;20458;-67
2024/02/24 11:39:42;;;;;;;5.27;1.97;;;10.70;99.90;;;;;;5074077;28;20565;-66
2024/02/24 11:42:11;;;;;;;2.40;1.97;;;10.60;99.90;;;;;;5074189;28;20436;-67
2024/02/24 11:44:41;;;;;;;5.00;2.00;;;10.60;99.90;;;;;;5073987;28;20424;-68
2024/02/24 11:47:07;;;;;;;3.93;2.40;;;10.60;99.90;;;;;;5074075;28;20495;-69
2024/02/24 11:49:32;;;;;;;2.13;1.73;;;10.50;99.90;;;;;;5073927;28;21002;-70
2024/02/24 11:51:58;;;;;;;5.23;2.27;;;10.40;99.90;;;;;;5074491;28;20202;-70
2024/02/24 11:54:24;;;;;;;3.00;1.83;;;10.30;99.90;;;;;;5073802;28;20228;-72
2024/02/24 11:56:50;;;;;;;15.20;9.40;;;10.40;99.90;;;;;;5073740;28;20216;-69
2024/02/24 11:59:16;;;;;;;10.27;2.90;;;10.30;99.90;;;;;;5073458;28;20710;-66
2024/02/24 12:01:41;;;;;;;5.13;2.23;;;10.40;99.90;;;;;;5072480;28;20452;-71
2024/02/24 12:04:07;;;;;;;2.97;1.80;;;10.30;99.90;;;;;;5073752;28;20209;-75
2024/02/24 12:06:33;;;;;;;5.97;2.33;;;10.30;99.90;;;;;;5073847;28;20440;-73
2024/02/24 12:08:59;;;;;;;2.57;1.80;;;10.20;99.90;;;;;;5074027;28;20705;-73
2024/02/24 12:11:26;;;;;;;3.23;1.90;;;10.30;99.90;;;;;;5073240;28;20174;-66
2024/02/24 12:13:52;;;;;;;3.00;1.70;;;10.50;99.90;;;;;;5073258;28;20463;-65
2024/02/24 12:16:18;;;;;;;3.47;2.40;;;10.80;99.90;;;;;;5073264;28;20416;-64
2024/02/24 12:18:45;;;;;;;1.60;1.50;;;10.90;99.90;;;;;;5073337;28;20194;-65
2024/02/24 12:21:11;;;;;;;1.90;1.60;;;10.90;99.90;;;;;;5073060;28;20409;-66
2024/02/24 12:23:38;;;;;;;2.10;1.50;;;11.00;99.90;;;;;;5073109;28;20523;-65
2024/02/24 12:26:14;;;;;;;4.33;1.60;;;11.20;99.90;;;;;;5072896;28;20412;-66
2024/02/24 12:28:41;;;;;;;2.33;1.67;;;11.20;99.90;;;;;;5065981;28;20499;-65
2024/02/24 12:31:08;;;;;;;2.37;1.90;;;11.20;99.90;;;;;;5072699;28;20491;-66
2024/02/24 12:33:36;;;;;;;3.93;1.60;;;11.10;99.90;;;;;;5064614;28;20489;-75
2024/02/24 12:36:11;;;;;;;3.97;2.37;;;11.00;99.90;;;;;;5072202;28;20921;-67
2024/02/24 12:38:37;;;;;;;2.10;1.70;;;11.00;99.90;;;;;;5073010;28;20451;-67
2024/02/24 12:41:10;;;;;;;2.70;1.93;;;11.20;99.90;;;;;;5073389;28;20466;-65
2024/02/24 12:43:36;;;;;;;2.03;1.73;;;11.30;99.90;;;;;;5072871;28;20416;-68
2024/02/24 12:46:09;;;;;;;2.03;1.77;;;11.10;99.90;;;;;;5072516;28;20483;-66
2024/02/24 12:48:35;;;;;;;4.47;1.80;;;11.20;99.90;;;;;;5072493;28;20477;-65